Time;durP1;ratioP1;P1;durP2;ratioP2;P2;SDS_P1;SDS_P2;PMS_P1;PMS_P2;Temp;Humidity;BMP_temperature;BMP_pressure;BME280_temperature;BME280_humidity;BME280_pressure;Samples;Min_cycle;Max_cycle;Signal;HPM_P1;HPM_P2
2023/03/16 00:00:52;;;;;;;8.85;3.70;;;2.60;99.90;;;;;;5108363;27;20079;-65
2023/03/16 00:03:18;;;;;;;8.50;4.00;;;2.70;99.90;;;;;;5111040;27;20042;-66
2023/03/16 00:05:48;;;;;;;6.25;3.95;;;2.70;99.90;;;;;;5114635;27;20519;-66
2023/03/16 00:08:14;;;;;;;7.22;4.20;;;2.70;99.90;;;;;;5113717;27;20114;-66
2023/03/16 00:10:45;;;;;;;8.25;4.05;;;2.70;99.90;;;;;;5112336;27;20479;-67
2023/03/16 00:13:14;;;;;;;6.03;3.83;;;2.80;99.90;;;;;;5107274;27;20078;-66
2023/03/16 00:15:41;;;;;;;7.20;4.25;;;2.80;99.90;;;;;;5105401;27;20500;-67
2023/03/16 00:18:07;;;;;;;6.78;3.67;;;2.80;99.90;;;;;;5115618;27;20504;-65
2023/03/16 00:20:32;;;;;;;8.55;4.13;;;2.80;99.90;;;;;;5119016;27;20123;-66
2023/03/16 00:22:58;;;;;;;11.13;4.00;;;2.80;99.90;;;;;;5127878;27;20046;-66
2023/03/16 00:25:24;;;;;;;7.20;4.05;;;2.80;99.90;;;;;;5113250;27;20110;-65
2023/03/16 00:27:49;;;;;;;8.88;3.97;;;2.80;99.90;;;;;;5110199;27;20497;-66
2023/03/16 00:30:15;;;;;;;8.35;4.60;;;2.90;99.90;;;;;;5102840;27;20498;-66
2023/03/16 00:32:41;;;;;;;10.45;4.40;;;2.90;99.90;;;;;;5118904;27;20040;-66
2023/03/16 00:35:07;;;;;;;10.43;4.18;;;2.90;99.90;;;;;;5113157;27;20173;-66
2023/03/16 00:37:32;;;;;;;8.98;4.35;;;2.90;99.90;;;;;;5114037;27;20495;-66
2023/03/16 00:39:58;;;;;;;11.93;4.60;;;2.90;99.90;;;;;;5114755;27;20562;-66
2023/03/16 00:42:26;;;;;;;8.98;4.30;;;2.90;99.90;;;;;;5108427;27;20122;-66
2023/03/16 00:45:01;;;;;;;7.93;4.22;;;3.00;99.90;;;;;;5113890;27;20031;-66
2023/03/16 00:47:31;;;;;;;12.40;4.68;;;3.00;99.90;;;;;;5103728;27;20668;-66
2023/03/16 00:49:57;;;;;;;10.98;4.20;;;3.00;99.90;;;;;;5114312;27;20409;-66
2023/03/16 00:52:26;;;;;;;6.57;4.20;;;3.00;99.90;;;;;;5113111;27;20091;-66
2023/03/16 00:54:52;;;;;;;9.00;4.50;;;3.00;99.90;;;;;;5110257;27;20465;-66
2023/03/16 00:57:18;;;;;;;8.52;4.38;;;3.00;99.90;;;;;;5111312;27;20096;-66
2023/03/16 00:59:44;;;;;;;9.23;4.38;;;3.00;99.90;;;;;;5108808;27;20038;-66
2023/03/16 01:02:11;;;;;;;11.07;4.80;;;3.10;99.90;;;;;;5106863;27;20413;-66
2023/03/16 01:04:38;;;;;;;9.63;4.50;;;3.10;99.90;;;;;;5113175;27;20031;-66
2023/03/16 01:07:06;;;;;;;10.82;4.68;;;3.10;99.90;;;;;;5111977;27;20047;-66
2023/03/16 01:09:35;;;;;;;8.30;4.75;;;3.00;99.90;;;;;;5114021;27;20107;-66
2023/03/16 01:12:06;;;;;;;9.82;5.05;;;3.00;99.90;;;;;;5112319;27;20093;-66
2023/03/16 01:14:36;;;;;;;8.77;4.72;;;3.00;99.90;;;;;;5113251;27;20075;-66
2023/03/16 01:17:04;;;;;;;8.65;4.68;;;3.00;99.90;;;;;;5109016;27;20043;-66
2023/03/16 01:19:34;;;;;;;10.60;5.22;;;3.00;99.90;;;;;;5120918;27;20050;-66
2023/03/16 01:22:01;;;;;;;9.02;5.03;;;3.00;99.90;;;;;;5114835;27;20044;-66
2023/03/16 01:24:26;;;;;;;10.93;5.20;;;3.00;99.90;;;;;;5104381;27;20083;-66
2023/03/16 01:26:53;;;;;;;10.90;4.72;;;3.00;99.90;;;;;;5097607;27;20031;-66
2023/03/16 01:29:18;;;;;;;7.70;5.22;;;3.00;99.90;;;;;;5108884;27;20113;-66
2023/03/16 01:31:44;;;;;;;11.48;5.07;;;3.00;99.90;;;;;;5107817;27;20110;-66
2023/03/16 01:34:15;;;;;;;13.98;5.22;;;3.00;99.90;;;;;;5111792;27;20063;-65
2023/03/16 01:36:43;;;;;;;9.05;5.13;;;3.00;99.90;;;;;;5103714;27;20091;-66
2023/03/16 01:39:10;;;;;;;10.40;5.40;;;3.00;99.90;;;;;;5113754;27;20051;-66
2023/03/16 01:41:35;;;;;;;9.32;5.13;;;3.00;99.90;;;;;;5106893;27;20039;-66
2023/03/16 01:44:01;;;;;;;10.90;5.40;;;3.00;99.90;;;;;;5111253;27;20461;-66
2023/03/16 01:46:28;;;;;;;10.02;4.78;;;3.00;99.90;;;;;;5097778;27;20512;-65
2023/03/16 01:48:56;;;;;;;10.15;5.50;;;3.00;99.90;;;;;;5103235;27;20056;-66
2023/03/16 01:51:24;;;;;;;10.68;4.90;;;3.00;99.90;;;;;;5109871;27;20039;-66
2023/03/16 01:53:53;;;;;;;10.57;5.00;;;3.10;99.90;;;;;;5112746;27;20080;-65
2023/03/16 01:56:33;;;;;;;7.65;5.28;;;3.10;99.90;;;;;;5107499;27;20047;-66
2023/03/16 01:59:04;;;;;;;10.50;4.82;;;3.10;99.90;;;;;;5104137;27;20050;-66
2023/03/16 02:01:30;;;;;;;10.45;4.90;;;3.10;99.90;;;;;;5104364;27;20050;-66
2023/03/16 02:04:04;;;;;;;9.07;5.10;;;3.10;99.90;;;;;;5113044;27;20561;-65
2023/03/16 02:06:31;;;;;;;11.07;5.15;;;3.10;99.90;;;;;;5109220;27;20046;-66
2023/03/16 02:08:57;;;;;;;12.57;5.50;;;3.20;99.90;;;;;;5105226;27;20078;-66
2023/03/16 02:11:23;;;;;;;13.75;4.78;;;3.20;99.90;;;;;;5107378;27;20050;-65
2023/03/16 02:13:49;;;;;;;8.48;4.72;;;3.20;99.90;;;;;;5112573;27;20046;-66
2023/03/16 02:16:18;;;;;;;9.60;5.32;;;3.20;99.90;;;;;;5105891;27;20051;-66
2023/03/16 02:18:48;;;;;;;11.02;5.32;;;3.30;99.90;;;;;;5110822;27;20039;-66
2023/03/16 02:21:37;;;;;;;7.93;4.85;;;3.30;99.90;;;;;;5107152;27;20455;-65
2023/03/16 02:24:03;;;;;;;9.65;5.38;;;3.30;99.90;;;;;;5113648;27;20035;-66
2023/03/16 02:26:37;;;;;;;8.10;4.57;;;3.30;99.90;;;;;;5110501;27;20059;-66
2023/03/16 02:29:40;;;;;;;10.55;5.40;;;3.30;99.90;;;;;;5105752;28;20079;-66
2023/03/16 02:32:07;;;;;;;8.65;5.07;;;3.40;99.90;;;;;;5105772;27;20049;-65
2023/03/16 02:34:34;;;;;;;14.23;6.10;;;3.40;99.90;;;;;;5110921;27;20043;-66
2023/03/16 02:37:00;;;;;;;11.77;5.57;;;3.40;99.90;;;;;;5106161;27;20039;-66
2023/03/16 02:39:26;;;;;;;10.05;5.40;;;3.40;99.90;;;;;;5095143;27;20117;-66
2023/03/16 02:41:51;;;;;;;10.00;5.60;;;3.40;99.90;;;;;;5105942;27;20118;-66
2023/03/16 02:44:35;;;;;;;11.57;5.47;;;3.40;99.90;;;;;;5114770;27;20046;-66
2023/03/16 02:47:15;;;;;;;15.05;6.00;;;3.50;99.90;;;;;;5109046;27;20133;-66
2023/03/16 02:49:43;;;;;;;12.27;5.50;;;3.50;99.90;;;;;;5111394;27;20374;-66
2023/03/16 02:52:10;;;;;;;13.55;5.82;;;3.50;99.90;;;;;;5102302;27;20050;-66
2023/03/16 02:54:35;;;;;;;8.80;5.75;;;3.50;99.90;;;;;;5103210;27;20073;-66
2023/03/16 02:57:01;;;;;;;8.85;5.80;;;3.60;99.90;;;;;;5110703;27;20043;-66
2023/03/16 02:59:27;;;;;;;10.35;6.28;;;3.60;99.90;;;;;;5110393;27;20035;-66
2023/03/16 03:01:52;;;;;;;12.52;6.07;;;3.60;99.90;;;;;;5107712;27;20126;-66
2023/03/16 03:04:18;;;;;;;11.20;5.88;;;3.60;99.90;;;;;;5108989;27;20042;-66
2023/03/16 03:06:44;;;;;;;11.98;6.10;;;3.70;99.90;;;;;;5109321;27;20054;-66
2023/03/16 03:09:12;;;;;;;10.48;6.10;;;3.70;99.90;;;;;;5108018;27;20312;-66
2023/03/16 03:11:38;;;;;;;11.73;6.03;;;3.70;99.90;;;;;;5093958;28;20039;-66
2023/03/16 03:14:03;;;;;;;10.10;6.40;;;3.70;99.90;;;;;;5086861;27;20031;-66
2023/03/16 03:16:30;;;;;;;10.18;6.20;;;3.70;99.90;;;;;;5107886;27;20051;-66
2023/03/16 03:18:56;;;;;;;11.50;6.60;;;3.70;99.90;;;;;;5110526;27;20054;-67
2023/03/16 03:21:22;;;;;;;11.68;6.63;;;3.80;99.90;;;;;;5099625;27;20039;-67
2023/03/16 03:23:48;;;;;;;11.15;6.55;;;3.80;99.90;;;;;;5110622;28;20040;-66
2023/03/16 03:26:15;;;;;;;9.07;6.18;;;3.80;99.90;;;;;;5100261;27;20489;-66
2023/03/16 03:28:41;;;;;;;9.52;6.18;;;3.80;99.90;;;;;;5103758;27;20062;-66
2023/03/16 03:31:13;;;;;;;12.23;6.82;;;3.90;99.90;;;;;;5108021;27;20147;-67
2023/03/16 03:33:39;;;;;;;12.80;6.28;;;3.80;99.90;;;;;;5108914;28;20045;-66
2023/03/16 03:36:05;;;;;;;11.80;6.40;;;3.90;99.90;;;;;;5108342;27;20118;-66
2023/03/16 03:38:30;;;;;;;12.20;6.55;;;3.90;99.90;;;;;;5127584;27;20039;-67
2023/03/16 03:40:58;;;;;;;15.07;7.13;;;3.90;99.90;;;;;;5110280;27;20031;-66
2023/03/16 03:43:24;;;;;;;12.07;6.72;;;3.90;99.90;;;;;;5110670;28;20043;-67
2023/03/16 03:45:58;;;;;;;12.90;6.45;;;3.90;99.90;;;;;;5106958;28;21397;-66
2023/03/16 03:48:24;;;;;;;13.88;7.10;;;3.90;99.90;;;;;;5100162;27;20043;-66
2023/03/16 03:50:49;;;;;;;13.48;6.75;;;3.90;99.90;;;;;;5102265;28;20047;-67
2023/03/16 03:53:16;;;;;;;10.27;6.40;;;3.90;99.90;;;;;;5117046;27;20039;-66
2023/03/16 03:55:41;;;;;;;13.25;6.97;;;3.90;99.90;;;;;;5106715;28;20047;-66
2023/03/16 03:58:07;;;;;;;10.95;6.78;;;3.90;99.90;;;;;;5103619;28;20042;-66
2023/03/16 04:00:33;;;;;;;13.77;7.55;;;3.90;99.90;;;;;;5103578;28;20117;-66
2023/03/16 04:02:58;;;;;;;13.32;6.70;;;3.90;99.90;;;;;;5101141;28;20062;-67
2023/03/16 04:05:27;;;;;;;13.27;6.50;;;3.90;99.90;;;;;;5106057;28;20039;-66
2023/03/16 04:07:56;;;;;;;11.23;6.57;;;3.90;99.90;;;;;;5120047;28;20043;-66
2023/03/16 04:10:27;;;;;;;12.90;6.85;;;3.90;99.90;;;;;;5104341;28;20050;-67
2023/03/16 04:12:54;;;;;;;15.88;6.40;;;3.80;99.90;;;;;;5102825;27;20043;-66
2023/03/16 04:15:21;;;;;;;13.50;6.22;;;3.90;99.90;;;;;;5099690;28;20402;-66
2023/03/16 04:17:47;;;;;;;12.60;6.63;;;3.80;99.90;;;;;;5104790;28;20039;-66
2023/03/16 04:20:17;;;;;;;10.05;6.32;;;3.80;99.90;;;;;;5089156;28;20035;-66
2023/03/16 04:22:44;;;;;;;11.02;6.43;;;3.90;99.90;;;;;;5121966;27;20043;-66
2023/03/16 04:25:11;;;;;;;10.32;6.07;;;3.90;99.90;;;;;;5099081;28;20043;-66
2023/03/16 04:27:36;;;;;;;12.65;6.18;;;3.90;99.90;;;;;;5102693;28;20031;-66
2023/03/16 04:30:10;;;;;;;12.35;5.97;;;3.90;99.90;;;;;;5099876;28;20036;-66
2023/03/16 04:32:35;;;;;;;11.60;6.57;;;3.90;99.90;;;;;;5103935;27;20050;-67
2023/03/16 04:35:02;;;;;;;11.45;5.80;;;3.90;99.90;;;;;;5116852;27;20031;-66
2023/03/16 04:37:27;;;;;;;11.27;6.45;;;3.90;99.90;;;;;;5106094;27;20062;-67
2023/03/16 04:39:53;;;;;;;11.20;6.15;;;3.90;99.90;;;;;;5107510;27;20062;-67
2023/03/16 04:42:18;;;;;;;9.73;6.10;;;3.80;99.90;;;;;;5107759;27;20047;-66
2023/03/16 04:44:44;;;;;;;7.70;5.50;;;3.90;99.90;;;;;;5123350;27;20027;-67
2023/03/16 04:47:14;;;;;;;11.57;5.95;;;3.90;99.90;;;;;;5119177;27;20031;-67
2023/03/16 04:49:40;;;;;;;11.05;6.25;;;3.90;99.90;;;;;;5108484;27;20085;-66
2023/03/16 04:52:06;;;;;;;13.25;6.38;;;3.90;99.90;;;;;;5107910;27;20074;-67
2023/03/16 04:54:32;;;;;;;10.75;6.38;;;3.90;99.90;;;;;;5107662;27;20086;-67
2023/03/16 04:56:59;;;;;;;11.60;6.15;;;3.90;99.90;;;;;;5104784;27;20595;-66
2023/03/16 04:59:25;;;;;;;11.40;6.25;;;3.90;99.90;;;;;;5107119;27;20074;-66
2023/03/16 05:01:51;;;;;;;11.90;6.20;;;3.90;99.90;;;;;;5103565;27;20393;-67
2023/03/16 05:04:16;;;;;;;13.25;6.43;;;3.90;99.90;;;;;;5109129;27;20039;-66
2023/03/16 05:06:42;;;;;;;14.88;7.07;;;3.90;99.90;;;;;;5104609;27;20031;-67
2023/03/16 05:09:08;;;;;;;12.32;6.20;;;3.90;99.90;;;;;;5125477;27;20122;-67
2023/03/16 05:11:34;;;;;;;11.23;6.47;;;3.80;99.90;;;;;;5106420;27;20051;-67
2023/03/16 05:14:00;;;;;;;12.23;6.65;;;3.90;99.90;;;;;;5109681;27;20382;-67
2023/03/16 05:16:29;;;;;;;14.88;6.43;;;3.90;99.90;;;;;;5103280;27;20051;-66
2023/03/16 05:18:59;;;;;;;12.65;7.28;;;3.90;99.90;;;;;;5090459;27;20043;-67
2023/03/16 05:21:25;;;;;;;11.70;6.40;;;3.90;99.90;;;;;;5105971;27;20545;-67
2023/03/16 05:23:50;;;;;;;13.45;6.82;;;3.90;99.90;;;;;;5108062;27;20043;-67
2023/03/16 05:26:17;;;;;;;11.73;6.45;;;3.90;99.90;;;;;;5107514;27;20035;-66
2023/03/16 05:28:43;;;;;;;13.60;6.78;;;3.90;99.90;;;;;;5089864;27;20464;-67
2023/03/16 05:31:09;;;;;;;12.82;6.80;;;3.90;99.90;;;;;;5105777;27;20046;-67
2023/03/16 05:33:34;;;;;;;10.80;6.60;;;3.90;99.90;;;;;;5105351;27;20043;-67
2023/03/16 05:36:01;;;;;;;12.50;7.20;;;3.90;99.90;;;;;;5106328;27;20077;-67
2023/03/16 05:38:28;;;;;;;11.98;6.70;;;3.90;99.90;;;;;;5105071;27;20520;-68
2023/03/16 05:40:53;;;;;;;9.85;6.43;;;3.90;99.90;;;;;;5103659;27;20043;-67
2023/03/16 05:43:20;;;;;;;14.57;6.97;;;3.90;99.90;;;;;;5103192;27;20061;-67
2023/03/16 05:45:46;;;;;;;14.05;6.88;;;3.90;99.90;;;;;;5106638;27;20501;-66
2023/03/16 05:48:13;;;;;;;13.45;7.07;;;3.90;99.90;;;;;;5098600;27;20062;-66
2023/03/16 05:50:39;;;;;;;12.25;7.25;;;3.90;99.90;;;;;;5117976;27;20088;-68
2023/03/16 05:53:05;;;;;;;11.95;5.90;;;3.90;99.90;;;;;;5114186;27;20043;-67
2023/03/16 05:55:30;;;;;;;12.27;6.72;;;3.90;99.90;;;;;;5110288;28;20148;-67
2023/03/16 05:57:56;;;;;;;11.10;6.55;;;3.80;99.90;;;;;;5100273;27;20466;-67
2023/03/16 06:00:22;;;;;;;11.68;6.40;;;3.90;99.90;;;;;;5128364;27;20035;-67
2023/03/16 06:02:50;;;;;;;12.13;7.50;;;3.80;99.90;;;;;;5114436;27;20038;-67
2023/03/16 06:05:17;;;;;;;10.20;6.20;;;3.80;99.90;;;;;;5087601;27;20663;-68
2023/03/16 06:07:43;;;;;;;13.90;6.95;;;3.90;99.90;;;;;;5122689;27;20043;-67
2023/03/16 06:10:10;;;;;;;14.98;7.22;;;3.90;99.90;;;;;;5110803;27;20043;-67
2023/03/16 06:12:36;;;;;;;13.80;6.70;;;3.90;99.90;;;;;;5104181;27;20048;-67
2023/03/16 06:15:02;;;;;;;12.07;6.75;;;3.90;99.90;;;;;;5103418;27;20494;-66
2023/03/16 06:17:28;;;;;;;11.88;6.72;;;3.90;99.90;;;;;;5101412;27;20474;-67
2023/03/16 06:19:53;;;;;;;9.93;6.53;;;3.90;99.90;;;;;;5107242;27;20134;-67
2023/03/16 06:22:19;;;;;;;11.20;6.85;;;3.90;99.90;;;;;;5105753;27;20042;-67
2023/03/16 06:24:44;;;;;;;12.93;7.18;;;3.90;99.90;;;;;;5104970;27;20119;-67
2023/03/16 06:27:10;;;;;;;12.30;6.80;;;3.90;99.90;;;;;;5105219;27;20477;-68
2023/03/16 06:29:36;;;;;;;11.32;6.50;;;4.00;99.90;;;;;;5109389;27;20474;-66
2023/03/16 06:32:02;;;;;;;9.77;6.32;;;4.00;99.90;;;;;;5100889;27;20046;-67
2023/03/16 06:34:27;;;;;;;10.85;6.15;;;4.10;99.90;;;;;;5105830;27;20045;-67
2023/03/16 06:36:53;;;;;;;11.55;6.63;;;4.10;99.90;;;;;;5105771;27;20069;-67
2023/03/16 06:39:18;;;;;;;13.25;6.40;;;4.10;99.90;;;;;;5104327;27;20066;-68
2023/03/16 06:41:44;;;;;;;10.63;6.60;;;4.20;99.90;;;;;;5100322;27;20094;-67
2023/03/16 06:44:10;;;;;;;11.52;6.22;;;4.20;99.90;;;;;;5084575;27;20405;-68
2023/03/16 06:46:36;;;;;;;9.38;5.60;;;4.20;99.90;;;;;;5103867;27;20035;-66
2023/03/16 06:49:03;;;;;;;11.93;6.53;;;4.30;99.90;;;;;;5100010;27;20390;-66
2023/03/16 06:51:30;;;;;;;12.98;6.47;;;4.30;99.90;;;;;;5101443;27;20079;-67
2023/03/16 06:53:56;;;;;;;12.70;6.57;;;4.40;99.90;;;;;;5096880;27;20055;-67
2023/03/16 06:56:21;;;;;;;12.40;6.55;;;4.40;99.90;;;;;;5104299;27;20096;-67
2023/03/16 06:58:47;;;;;;;9.65;6.10;;;4.40;99.90;;;;;;5103671;27;20083;-67
2023/03/16 07:01:12;;;;;;;16.23;6.43;;;4.40;99.90;;;;;;5107289;27;20100;-66
2023/03/16 07:03:38;;;;;;;11.48;5.78;;;4.40;99.90;;;;;;5110631;27;20420;-69
2023/03/16 07:06:04;;;;;;;16.20;6.13;;;4.40;99.90;;;;;;5108605;27;20077;-69
2023/03/16 07:08:30;;;;;;;11.63;5.97;;;4.50;99.90;;;;;;5101424;27;20830;-68
2023/03/16 07:10:56;;;;;;;9.00;5.45;;;4.50;99.90;;;;;;5096619;27;20146;-69
2023/03/16 07:13:22;;;;;;;17.00;6.15;;;4.50;99.90;;;;;;5098297;27;20046;-68
2023/03/16 07:15:52;;;;;;;8.82;5.85;;;4.60;99.90;;;;;;5101090;27;20054;-68
2023/03/16 07:18:18;;;;;;;8.43;5.88;;;4.60;99.90;;;;;;5089778;27;20046;-68
2023/03/16 07:20:44;;;;;;;13.45;6.32;;;4.70;99.90;;;;;;5097674;28;20486;-68
2023/03/16 07:23:09;;;;;;;8.95;5.57;;;4.70;99.90;;;;;;5093874;27;20044;-68
2023/03/16 07:25:35;;;;;;;9.68;5.60;;;4.80;99.90;;;;;;5094531;28;20446;-68
2023/03/16 07:28:02;;;;;;;18.15;6.22;;;4.80;99.90;;;;;;5110348;27;20046;-68
2023/03/16 07:30:28;;;;;;;12.63;5.80;;;4.80;99.90;;;;;;5111589;27;20043;-68
2023/03/16 07:32:53;;;;;;;8.85;5.50;;;4.80;99.90;;;;;;5111235;27;20549;-68
2023/03/16 07:35:20;;;;;;;10.90;5.65;;;4.90;99.90;;;;;;5107958;27;20047;-68
2023/03/16 07:37:46;;;;;;;10.45;6.07;;;4.90;99.90;;;;;;5109946;28;20042;-68
2023/03/16 07:40:13;;;;;;;9.63;5.47;;;5.00;99.90;;;;;;5111663;28;20035;-68
2023/03/16 07:42:39;;;;;;;11.77;5.60;;;5.00;99.90;;;;;;5114173;28;20480;-68
2023/03/16 07:45:05;;;;;;;11.27;5.45;;;5.10;99.90;;;;;;5116311;28;20047;-68
2023/03/16 07:47:32;;;;;;;11.48;5.90;;;5.10;99.90;;;;;;5108737;27;20039;-68
2023/03/16 07:49:58;;;;;;;9.63;5.72;;;5.10;99.90;;;;;;5110832;28;20043;-69
2023/03/16 07:52:23;;;;;;;11.27;5.68;;;5.10;99.90;;;;;;5101048;27;20542;-68
2023/03/16 07:54:49;;;;;;;10.10;5.53;;;5.20;99.90;;;;;;5099398;27;20034;-69
2023/03/16 07:57:14;;;;;;;8.43;5.03;;;5.20;99.90;;;;;;5111415;27;20031;-68
2023/03/16 07:59:40;;;;;;;15.45;5.90;;;5.10;99.90;;;;;;5110301;28;20043;-69
2023/03/16 08:02:10;;;;;;;12.75;5.75;;;5.20;99.90;;;;;;5101890;27;20038;-69
2023/03/16 08:04:36;;;;;;;11.75;5.78;;;5.20;99.90;;;;;;5107042;27;20439;-69
2023/03/16 08:07:01;;;;;;;9.70;5.90;;;5.20;99.90;;;;;;5113615;27;20039;-69
2023/03/16 08:09:27;;;;;;;13.05;6.15;;;5.20;99.90;;;;;;5114270;27;20039;-69
2023/03/16 08:11:53;;;;;;;11.48;5.65;;;5.20;99.90;;;;;;5123682;27;20031;-68
2023/03/16 08:14:18;;;;;;;9.95;5.57;;;5.20;99.90;;;;;;5097805;27;20390;-69
2023/03/16 08:16:44;;;;;;;14.05;5.95;;;5.20;99.90;;;;;;5131341;27;20046;-69
2023/03/16 08:19:10;;;;;;;11.15;6.00;;;5.20;99.90;;;;;;5102475;27;20070;-70
2023/03/16 08:21:36;;;;;;;10.70;5.45;;;5.30;99.90;;;;;;5116170;27;20426;-69
2023/03/16 08:24:01;;;;;;;9.82;5.72;;;5.30;99.90;;;;;;5097144;28;20126;-69
2023/03/16 08:26:28;;;;;;;12.65;6.03;;;5.30;99.90;;;;;;5111772;27;20035;-69
2023/03/16 08:28:54;;;;;;;9.63;5.63;;;5.30;99.90;;;;;;5117444;27;20046;-68
2023/03/16 08:31:20;;;;;;;8.15;5.57;;;5.40;99.90;;;;;;5098572;27;20035;-68
2023/03/16 08:33:47;;;;;;;11.77;6.03;;;5.40;99.90;;;;;;5101062;27;20495;-69
2023/03/16 08:36:14;;;;;;;9.75;5.43;;;5.50;99.90;;;;;;5116892;27;20116;-69
2023/03/16 08:38:41;;;;;;;10.63;5.70;;;5.50;99.90;;;;;;5118529;27;20039;-69
2023/03/16 08:41:07;;;;;;;10.35;5.38;;;5.50;99.90;;;;;;5115869;27;20046;-69
2023/03/16 08:43:34;;;;;;;9.75;5.57;;;5.50;99.90;;;;;;5103213;27;20073;-69
2023/03/16 08:46:00;;;;;;;9.15;5.63;;;5.60;99.90;;;;;;5117165;27;20046;-69
2023/03/16 08:48:27;;;;;;;10.23;5.20;;;5.60;99.90;;;;;;5106348;28;20083;-70
2023/03/16 08:50:54;;;;;;;8.35;5.70;;;5.60;99.90;;;;;;5096823;28;20176;-69
2023/03/16 08:53:20;;;;;;;11.15;5.97;;;5.60;99.90;;;;;;5105850;27;20122;-69
2023/03/16 08:55:46;;;;;;;7.78;5.30;;;5.60;99.90;;;;;;5112135;27;20032;-69
2023/03/16 08:58:12;;;;;;;9.73;5.57;;;5.60;99.90;;;;;;5111149;27;20754;-70
2023/03/16 09:00:38;;;;;;;10.95;5.57;;;5.60;99.90;;;;;;5115142;27;20050;-70
2023/03/16 09:03:05;;;;;;;10.05;5.40;;;5.60;99.90;;;;;;5107924;28;20047;-69
2023/03/16 09:05:31;;;;;;;8.65;5.18;;;5.70;99.90;;;;;;5101439;27;20047;-69
2023/03/16 09:07:57;;;;;;;10.48;5.45;;;5.70;99.90;;;;;;5112416;27;20474;-69
2023/03/16 09:10:26;;;;;;;11.55;5.75;;;5.70;99.90;;;;;;5096264;27;20043;-70
2023/03/16 09:12:52;;;;;;;10.73;5.10;;;5.80;99.90;;;;;;5097138;27;20050;-69
2023/03/16 09:15:19;;;;;;;9.80;5.53;;;5.80;99.90;;;;;;5113153;27;20047;-70
2023/03/16 09:17:46;;;;;;;9.75;5.47;;;5.80;99.90;;;;;;5109024;27;20481;-69
2023/03/16 09:20:15;;;;;;;11.35;5.78;;;5.90;99.90;;;;;;5095644;27;20392;-70
2023/03/16 09:22:40;;;;;;;11.32;5.55;;;5.90;99.90;;;;;;5107581;27;20047;-69
2023/03/16 09:25:07;;;;;;;11.18;5.32;;;5.90;99.90;;;;;;5114783;27;20034;-68
2023/03/16 09:27:35;;;;;;;9.02;5.38;;;6.00;99.90;;;;;;5114346;27;20039;-70
2023/03/16 09:30:03;;;;;;;12.25;5.90;;;6.00;99.90;;;;;;5106977;27;20097;-70
2023/03/16 09:32:29;;;;;;;11.75;5.32;;;6.00;99.90;;;;;;5113843;27;20047;-69
2023/03/16 09:34:55;;;;;;;11.48;6.13;;;6.00;99.90;;;;;;5108476;27;20047;-68
2023/03/16 09:37:21;;;;;;;9.18;5.20;;;6.10;99.90;;;;;;5116265;27;20042;-69
2023/03/16 09:39:48;;;;;;;10.18;5.70;;;6.10;99.90;;;;;;5097674;27;20054;-68
2023/03/16 09:42:26;;;;;;;9.30;5.10;;;6.20;99.90;;;;;;5110197;27;20062;-67
2023/03/16 09:45:08;;;;;;;12.15;5.20;;;6.20;99.90;;;;;;5106540;27;20075;-68
2023/03/16 09:47:35;;;;;;;9.18;5.03;;;6.20;99.90;;;;;;5109332;27;20113;-68
2023/03/16 09:50:08;;;;;;;9.35;5.30;;;6.30;99.90;;;;;;5112602;27;20039;-67
2023/03/16 09:52:49;;;;;;;11.13;6.00;;;6.20;99.90;;;;;;5110342;27;20039;-67
2023/03/16 09:55:26;;;;;;;10.65;5.18;;;6.30;99.90;;;;;;5114713;27;20063;-68
2023/03/16 09:57:53;;;;;;;12.95;6.03;;;6.30;99.90;;;;;;5107873;27;20054;-67
2023/03/16 10:00:26;;;;;;;10.80;6.15;;;6.30;99.90;;;;;;5094511;28;20118;-67
2023/03/16 10:03:00;;;;;;;10.27;6.00;;;6.30;99.90;;;;;;5096127;27;20031;-66
2023/03/16 10:05:27;;;;;;;10.60;5.60;;;6.30;99.90;;;;;;5117651;27;20087;-66
2023/03/16 10:07:55;;;;;;;12.07;6.20;;;6.40;99.90;;;;;;5111032;27;20058;-66
2023/03/16 10:10:50;;;;;;;11.70;5.97;;;6.40;99.90;;;;;;5114255;27;20069;-67
2023/03/16 10:14:03;;;;;;;10.02;5.85;;;6.50;99.90;;;;;;5112137;27;20039;-66
2023/03/16 10:16:50;;;;;;;10.63;5.68;;;6.50;99.90;;;;;;5110675;27;20062;-67
2023/03/16 10:19:31;;;;;;;10.73;5.85;;;6.50;99.90;;;;;;5088641;28;20044;-69
2023/03/16 10:22:01;;;;;;;8.82;5.25;;;6.60;99.90;;;;;;5099045;27;20043;-67
2023/03/16 10:25:02;;;;;;;13.10;5.40;;;6.70;99.90;;;;;;5113957;27;20119;-67
2023/03/16 10:27:30;;;;;;;13.40;6.00;;;6.70;99.90;;;;;;5082761;27;20501;-66
2023/03/16 10:29:56;;;;;;;10.05;5.30;;;6.80;99.90;;;;;;5111648;27;20043;-69
2023/03/16 10:32:27;;;;;;;14.63;5.88;;;6.80;99.90;;;;;;5113549;27;20054;-67
2023/03/16 10:35:01;;;;;;;12.32;5.43;;;6.90;99.90;;;;;;5114550;27;20501;-66
2023/03/16 10:37:29;;;;;;;9.75;5.40;;;6.90;99.90;;;;;;5112263;27;20039;-67
2023/03/16 10:39:56;;;;;;;10.57;5.72;;;6.90;99.90;;;;;;5114104;27;20085;-69
2023/03/16 10:42:23;;;;;;;10.90;5.20;;;7.00;99.90;;;;;;5101014;27;20044;-66
2023/03/16 10:44:56;;;;;;;11.73;5.72;;;7.00;99.90;;;;;;5114378;27;20031;-69
2023/03/16 10:47:23;;;;;;;10.85;5.72;;;7.00;99.90;;;;;;5111146;27;20489;-67
2023/03/16 10:49:50;;;;;;;10.18;5.85;;;7.00;99.90;;;;;;5111609;27;20047;-67
2023/03/16 10:52:41;;;;;;;11.80;6.47;;;7.10;99.90;;;;;;5102482;28;20040;-67
2023/03/16 10:55:14;;;;;;;10.13;5.68;;;7.10;99.90;;;;;;5108910;27;20435;-67
2023/03/16 10:57:42;;;;;;;8.90;5.28;;;7.20;99.90;;;;;;5105709;27;20043;-67
2023/03/16 11:00:19;;;;;;;14.57;5.88;;;7.30;99.90;;;;;;5112657;27;20035;-67
2023/03/16 11:02:45;;;;;;;13.30;6.32;;;7.30;99.90;;;;;;5106920;27;20425;-67
2023/03/16 11:05:16;;;;;;;10.27;6.15;;;7.30;99.90;;;;;;5114036;27;20043;-67
2023/03/16 11:08:00;;;;;;;11.05;6.35;;;7.40;99.90;;;;;;5112382;27;20031;-66
2023/03/16 11:10:34;;;;;;;13.05;5.75;;;7.60;99.90;;;;;;5112081;27;20393;-67
2023/03/16 11:13:02;;;;;;;10.05;5.32;;;7.70;99.90;;;;;;5118307;27;20206;-68
2023/03/16 11:15:36;;;;;;;11.38;5.90;;;7.70;99.90;;;;;;5102008;27;20097;-69
2023/03/16 11:18:02;;;;;;;11.15;5.47;;;7.80;99.90;;;;;;5098703;28;20047;-68
2023/03/16 11:20:31;;;;;;;10.88;5.70;;;7.90;99.90;;;;;;5087105;27;20107;-67
2023/03/16 11:22:59;;;;;;;9.25;5.13;;;8.00;99.90;;;;;;5112258;28;20039;-67
2023/03/16 11:25:37;;;;;;;10.65;5.05;;;8.10;99.90;;;;;;5112340;27;20109;-68
2023/03/16 11:28:14;;;;;;;8.02;5.13;;;8.30;99.90;;;;;;5111522;27;20048;-67
2023/03/16 11:30:55;;;;;;;8.57;4.68;;;8.30;99.90;;;;;;5108108;27;20114;-68
2023/03/16 11:33:21;;;;;;;8.68;4.80;;;8.40;99.90;;;;;;5105274;28;20083;-68
2023/03/16 11:36:05;;;;;;;8.55;5.20;;;8.50;99.90;;;;;;5107544;28;20028;-67
2023/03/16 11:38:51;;;;;;;7.90;5.10;;;8.60;99.90;;;;;;5107966;28;20437;-68
2023/03/16 11:41:50;;;;;;;11.77;4.75;;;8.80;99.90;;;;;;5105024;27;20390;-69
2023/03/16 11:44:27;;;;;;;8.60;5.20;;;8.90;99.90;;;;;;5092255;28;20110;-67
2023/03/16 11:47:13;;;;;;;10.32;4.90;;;9.00;99.90;;;;;;5106530;27;20035;-66
2023/03/16 11:49:56;;;;;;;9.13;4.80;;;9.10;99.90;;;;;;5111419;28;20035;-68
2023/03/16 11:53:06;;;;;;;12.07;5.15;;;9.20;99.90;;;;;;5100971;28;20039;-68
2023/03/16 11:56:00;;;;;;;9.07;4.28;;;9.30;99.90;;;;;;5113977;28;20508;-68
2023/03/16 11:58:41;;;;;;;9.00;4.68;;;9.30;99.90;;;;;;5110158;28;20043;-68
2023/03/16 12:01:17;;;;;;;7.97;4.80;;;9.50;99.90;;;;;;5112312;28;20043;-68
2023/03/16 12:04:08;;;;;;;9.52;4.53;;;9.60;99.90;;;;;;5104241;28;20064;-69
2023/03/16 12:06:52;;;;;;;7.43;4.75;;;9.70;99.90;;;;;;5111443;27;20393;-68
2023/03/16 12:09:32;;;;;;;10.98;4.60;;;9.70;99.90;;;;;;5092371;28;20043;-69
2023/03/16 12:12:19;;;;;;;6.55;4.20;;;9.70;99.90;;;;;;5124131;27;20441;-66
2023/03/16 12:14:54;;;;;;;9.75;3.90;;;9.70;99.90;;;;;;5094409;28;20093;-68
2023/03/16 12:17:27;;;;;;;7.38;4.13;;;9.60;99.90;;;;;;5107059;28;20084;-69
2023/03/16 12:19:59;;;;;;;10.13;4.78;;;9.60;99.90;;;;;;5103911;28;20047;-67
2023/03/16 12:22:36;;;;;;;8.85;4.53;;;9.60;99.90;;;;;;5109820;28;20065;-68
2023/03/16 12:25:06;;;;;;;10.25;4.40;;;9.60;99.90;;;;;;5108035;28;20043;-69
2023/03/16 12:27:38;;;;;;;8.30;4.20;;;9.70;99.90;;;;;;5098642;28;20070;-67
2023/03/16 12:30:35;;;;;;;8.02;4.32;;;9.70;99.90;;;;;;5101713;28;20048;-68
2023/03/16 12:33:36;;;;;;;6.43;4.20;;;9.70;99.90;;;;;;5102660;28;20058;-68
2023/03/16 12:36:34;;;;;;;6.85;4.25;;;9.80;99.90;;;;;;5093000;28;20058;-68
2023/03/16 12:39:04;;;;;;;6.93;4.05;;;9.80;99.90;;;;;;5091499;28;20447;-69
2023/03/16 12:41:38;;;;;;;9.68;4.30;;;9.80;99.90;;;;;;5112374;28;20039;-69
2023/03/16 12:44:21;;;;;;;7.90;4.22;;;9.70;99.90;;;;;;5108395;27;20039;-68
2023/03/16 12:46:58;;;;;;;8.90;4.28;;;9.80;99.90;;;;;;5092358;27;20043;-68
2023/03/16 12:49:25;;;;;;;7.50;3.60;;;9.70;99.90;;;;;;5096542;28;20046;-68
2023/03/16 12:52:05;;;;;;;7.95;4.18;;;9.70;99.90;;;;;;5110021;27;20035;-68
2023/03/16 12:54:32;;;;;;;5.30;3.90;;;9.70;99.90;;;;;;5095170;27;20043;-68
2023/03/16 12:57:00;;;;;;;9.00;4.18;;;9.70;99.90;;;;;;5114595;27;20439;-69
2023/03/16 12:59:41;;;;;;;5.68;3.90;;;9.70;99.90;;;;;;5096872;27;20131;-69
2023/03/16 13:02:16;;;;;;;5.97;3.70;;;9.80;99.90;;;;;;5108980;27;20458;-67